sensor_id;sensor_type;location;lat;lon;timestamp;P1;durP1;ratioP1;P2;durP2;ratioP2
18114;SDS011;9184;54.390;18.620;2023-05-07T00:00:27;10.70;;;7.63;;
18114;SDS011;9184;54.390;18.620;2023-05-07T00:00:58;12.53;;;6.97;;
18114;SDS011;9184;54.390;18.620;2023-05-07T00:01:29;13.80;;;8.00;;
18114;SDS011;9184;54.390;18.620;2023-05-07T00:02:01;12.87;;;7.17;;
18114;SDS011;9184;54.390;18.620;2023-05-07T00:02:33;12.97;;;7.73;;
18114;SDS011;9184;54.390;18.620;2023-05-07T00:03:03;13.07;;;7.13;;
18114;SDS011;9184;54.390;18.620;2023-05-07T00:03:35;14.73;;;7.30;;
18114;SDS011;9184;54.390;18.620;2023-05-07T00:04:06;12.20;;;7.83;;
18114;SDS011;9184;54.390;18.620;2023-05-07T00:04:37;15.73;;;7.87;;
18114;SDS011;9184;54.390;18.620;2023-05-07T00:05:08;16.73;;;7.33;;
18114;SDS011;9184;54.390;18.620;2023-05-07T00:05:39;13.90;;;6.77;;
18114;SDS011;9184;54.390;18.620;2023-05-07T00:06:09;16.67;;;7.40;;
18114;SDS011;9184;54.390;18.620;2023-05-07T00:06:42;21.67;;;7.50;;
18114;SDS011;9184;54.390;18.620;2023-05-07T00:07:14;13.23;;;7.93;;
18114;SDS011;9184;54.390;18.620;2023-05-07T00:07:44;12.50;;;8.23;;
18114;SDS011;9184;54.390;18.620;2023-05-07T00:08:15;18.40;;;7.37;;
18114;SDS011;9184;54.390;18.620;2023-05-07T00:08:45;12.17;;;7.53;;
18114;SDS011;9184;54.390;18.620;2023-05-07T00:09:17;12.53;;;6.67;;
18114;SDS011;9184;54.390;18.620;2023-05-07T00:09:47;12.77;;;7.43;;
18114;SDS011;9184;54.390;18.620;2023-05-07T00:10:18;11.27;;;6.97;;
18114;SDS011;9184;54.390;18.620;2023-05-07T00:10:49;13.27;;;7.50;;
18114;SDS011;9184;54.390;18.620;2023-05-07T00:11:20;14.03;;;7.30;;
18114;SDS011;9184;54.390;18.620;2023-05-07T00:11:51;19.97;;;7.90;;
18114;SDS011;9184;54.390;18.620;2023-05-07T00:12:21;15.77;;;8.00;;
18114;SDS011;9184;54.390;18.620;2023-05-07T00:12:52;12.20;;;7.60;;
18114;SDS011;9184;54.390;18.620;2023-05-07T00:13:24;17.40;;;8.53;;
18114;SDS011;9184;54.390;18.620;2023-05-07T00:13:55;11.10;;;7.10;;
18114;SDS011;9184;54.390;18.620;2023-05-07T00:14:26;18.13;;;7.53;;
18114;SDS011;9184;54.390;18.620;2023-05-07T00:14:57;11.23;;;7.30;;
18114;SDS011;9184;54.390;18.620;2023-05-07T00:15:27;15.03;;;8.30;;
18114;SDS011;9184;54.390;18.620;2023-05-07T00:15:58;12.00;;;7.83;;
18114;SDS011;9184;54.390;18.620;2023-05-07T00:16:29;14.50;;;8.27;;
18114;SDS011;9184;54.390;18.620;2023-05-07T00:17:00;11.33;;;7.33;;
18114;SDS011;9184;54.390;18.620;2023-05-07T00:17:30;11.37;;;7.03;;
18114;SDS011;9184;54.390;18.620;2023-05-07T00:18:01;19.47;;;7.17;;
18114;SDS011;9184;54.390;18.620;2023-05-07T00:18:32;14.53;;;7.83;;
18114;SDS011;9184;54.390;18.620;2023-05-07T00:19:03;16.60;;;8.30;;
18114;SDS011;9184;54.390;18.620;2023-05-07T00:19:34;13.20;;;7.07;;
18114;SDS011;9184;54.390;18.620;2023-05-07T00:20:04;16.15;;;8.15;;
18114;SDS011;9184;54.390;18.620;2023-05-07T00:20:36;16.83;;;8.10;;
18114;SDS011;9184;54.390;18.620;2023-05-07T00:21:06;15.23;;;8.23;;
18114;SDS011;9184;54.390;18.620;2023-05-07T00:21:37;14.90;;;8.03;;
18114;SDS011;9184;54.390;18.620;2023-05-07T00:22:07;12.77;;;7.00;;
18114;SDS011;9184;54.390;18.620;2023-05-07T00:22:39;15.87;;;8.40;;
18114;SDS011;9184;54.390;18.620;2023-05-07T00:23:10;12.90;;;7.93;;
18114;SDS011;9184;54.390;18.620;2023-05-07T00:23:40;10.50;;;7.33;;
18114;SDS011;9184;54.390;18.620;2023-05-07T00:24:12;13.67;;;7.70;;
18114;SDS011;9184;54.390;18.620;2023-05-07T00:24:42;24.67;;;7.33;;
18114;SDS011;9184;54.390;18.620;2023-05-07T00:25:13;17.23;;;7.60;;
18114;SDS011;9184;54.390;18.620;2023-05-07T00:25:44;14.25;;;7.78;;
18114;SDS011;9184;54.390;18.620;2023-05-07T00:26:15;17.47;;;7.77;;
18114;SDS011;9184;54.390;18.620;2023-05-07T00:26:46;13.70;;;8.67;;
18114;SDS011;9184;54.390;18.620;2023-05-07T00:27:17;12.37;;;7.83;;
18114;SDS011;9184;54.390;18.620;2023-05-07T00:27:48;19.53;;;8.83;;
18114;SDS011;9184;54.390;18.620;2023-05-07T00:28:18;13.50;;;6.93;;
18114;SDS011;9184;54.390;18.620;2023-05-07T00:28:50;16.40;;;7.20;;
18114;SDS011;9184;54.390;18.620;2023-05-07T00:29:21;13.97;;;7.77;;
18114;SDS011;9184;54.390;18.620;2023-05-07T00:29:52;11.10;;;7.30;;
18114;SDS011;9184;54.390;18.620;2023-05-07T00:30:22;13.63;;;7.30;;
18114;SDS011;9184;54.390;18.620;2023-05-07T00:30:54;11.77;;;7.30;;
18114;SDS011;9184;54.390;18.620;2023-05-07T00:31:24;12.43;;;7.30;;
18114;SDS011;9184;54.390;18.620;2023-05-07T00:31:55;11.73;;;7.00;;
18114;SDS011;9184;54.390;18.620;2023-05-07T00:32:25;15.00;;;8.90;;
18114;SDS011;9184;54.390;18.620;2023-05-07T00:32:57;14.90;;;8.60;;
18114;SDS011;9184;54.390;18.620;2023-05-07T00:33:28;15.40;;;8.30;;
18114;SDS011;9184;54.390;18.620;2023-05-07T00:33:58;15.33;;;7.43;;
18114;SDS011;9184;54.390;18.620;2023-05-07T00:34:30;12.20;;;7.57;;
18114;SDS011;9184;54.390;18.620;2023-05-07T00:35:00;11.17;;;7.33;;
18114;SDS011;9184;54.390;18.620;2023-05-07T00:35:31;14.47;;;8.20;;
18114;SDS011;9184;54.390;18.620;2023-05-07T00:36:01;15.47;;;7.67;;
18114;SDS011;9184;54.390;18.620;2023-05-07T00:36:33;18.00;;;7.87;;
18114;SDS011;9184;54.390;18.620;2023-05-07T00:37:03;14.40;;;8.03;;
18114;SDS011;9184;54.390;18.620;2023-05-07T00:37:34;12.43;;;7.33;;
18114;SDS011;9184;54.390;18.620;2023-05-07T00:38:05;10.23;;;7.17;;
18114;SDS011;9184;54.390;18.620;2023-05-07T00:38:35;14.33;;;8.70;;
18114;SDS011;9184;54.390;18.620;2023-05-07T00:39:06;13.40;;;7.87;;
18114;SDS011;9184;54.390;18.620;2023-05-07T00:39:36;15.27;;;8.00;;
18114;SDS011;9184;54.390;18.620;2023-05-07T00:40:08;13.10;;;8.30;;
18114;SDS011;9184;54.390;18.620;2023-05-07T00:40:39;16.63;;;8.13;;
18114;SDS011;9184;54.390;18.620;2023-05-07T00:41:10;16.30;;;8.50;;
18114;SDS011;9184;54.390;18.620;2023-05-07T00:41:41;14.27;;;8.47;;
18114;SDS011;9184;54.390;18.620;2023-05-07T00:42:12;14.70;;;7.97;;
18114;SDS011;9184;54.390;18.620;2023-05-07T00:42:43;14.23;;;8.33;;
18114;SDS011;9184;54.390;18.620;2023-05-07T00:43:17;15.43;;;8.87;;
18114;SDS011;9184;54.390;18.620;2023-05-07T00:43:48;13.90;;;7.87;;
18114;SDS011;9184;54.390;18.620;2023-05-07T00:44:22;17.47;;;8.33;;
18114;SDS011;9184;54.390;18.620;2023-05-07T00:44:53;13.57;;;7.50;;
18114;SDS011;9184;54.390;18.620;2023-05-07T00:45:25;11.87;;;7.10;;
18114;SDS011;9184;54.390;18.620;2023-05-07T00:45:57;20.53;;;8.17;;
18114;SDS011;9184;54.390;18.620;2023-05-07T00:46:27;13.47;;;7.67;;
18114;SDS011;9184;54.390;18.620;2023-05-07T00:46:58;18.10;;;7.57;;
18114;SDS011;9184;54.390;18.620;2023-05-07T00:47:31;12.30;;;7.67;;
18114;SDS011;9184;54.390;18.620;2023-05-07T00:48:03;15.70;;;7.20;;
18114;SDS011;9184;54.390;18.620;2023-05-07T00:48:33;15.30;;;7.80;;
18114;SDS011;9184;54.390;18.620;2023-05-07T00:49:04;11.27;;;7.57;;
18114;SDS011;9184;54.390;18.620;2023-05-07T00:49:37;14.60;;;8.07;;
18114;SDS011;9184;54.390;18.620;2023-05-07T00:50:08;15.53;;;7.60;;
18114;SDS011;9184;54.390;18.620;2023-05-07T00:50:40;11.50;;;8.07;;
18114;SDS011;9184;54.390;18.620;2023-05-07T00:51:11;12.93;;;7.57;;
18114;SDS011;9184;54.390;18.620;2023-05-07T00:51:42;13.07;;;7.63;;
18114;SDS011;9184;54.390;18.620;2023-05-07T00:52:13;13.53;;;7.83;;
18114;SDS011;9184;54.390;18.620;2023-05-07T00:52:45;12.47;;;6.77;;
18114;SDS011;9184;54.390;18.620;2023-05-07T00:53:15;13.00;;;7.27;;
18114;SDS011;9184;54.390;18.620;2023-05-07T00:53:45;14.90;;;6.80;;
18114;SDS011;9184;54.390;18.620;2023-05-07T00:54:16;20.00;;;7.40;;
18114;SDS011;9184;54.390;18.620;2023-05-07T00:54:48;15.33;;;8.67;;
18114;SDS011;9184;54.390;18.620;2023-05-07T00:55:18;12.73;;;7.67;;
18114;SDS011;9184;54.390;18.620;2023-05-07T00:55:50;11.50;;;7.97;;
18114;SDS011;9184;54.390;18.620;2023-05-07T00:56:20;12.63;;;7.60;;
18114;SDS011;9184;54.390;18.620;2023-05-07T00:56:51;15.03;;;8.47;;
18114;SDS011;9184;54.390;18.620;2023-05-07T00:57:22;12.70;;;7.77;;
18114;SDS011;9184;54.390;18.620;2023-05-07T00:57:55;18.60;;;7.90;;
18114;SDS011;9184;54.390;18.620;2023-05-07T00:58:25;18.60;;;8.67;;
18114;SDS011;9184;54.390;18.620;2023-05-07T00:58:56;14.63;;;7.27;;
18114;SDS011;9184;54.390;18.620;2023-05-07T00:59:29;13.80;;;7.43;;
18114;SDS011;9184;54.390;18.620;2023-05-07T01:00:00;12.90;;;7.50;;
18114;SDS011;9184;54.390;18.620;2023-05-07T01:00:30;17.10;;;7.80;;
18114;SDS011;9184;54.390;18.620;2023-05-07T01:01:02;12.20;;;7.63;;
18114;SDS011;9184;54.390;18.620;2023-05-07T01:01:33;14.27;;;7.83;;
18114;SDS011;9184;54.390;18.620;2023-05-07T01:02:03;13.23;;;8.10;;
18114;SDS011;9184;54.390;18.620;2023-05-07T01:02:34;14.20;;;7.80;;
18114;SDS011;9184;54.390;18.620;2023-05-07T01:03:05;14.73;;;7.53;;
18114;SDS011;9184;54.390;18.620;2023-05-07T01:03:36;13.90;;;7.37;;
18114;SDS011;9184;54.390;18.620;2023-05-07T01:04:06;15.10;;;8.17;;
18114;SDS011;9184;54.390;18.620;2023-05-07T01:04:38;12.70;;;7.97;;
18114;SDS011;9184;54.390;18.620;2023-05-07T01:05:09;13.13;;;8.03;;
18114;SDS011;9184;54.390;18.620;2023-05-07T01:05:41;12.13;;;7.80;;
18114;SDS011;9184;54.390;18.620;2023-05-07T01:06:13;13.67;;;7.83;;
18114;SDS011;9184;54.390;18.620;2023-05-07T01:06:46;12.63;;;7.33;;
18114;SDS011;9184;54.390;18.620;2023-05-07T01:07:17;20.50;;;8.10;;
18114;SDS011;9184;54.390;18.620;2023-05-07T01:07:48;14.50;;;8.17;;
18114;SDS011;9184;54.390;18.620;2023-05-07T01:08:20;12.23;;;7.30;;
18114;SDS011;9184;54.390;18.620;2023-05-07T01:08:50;17.27;;;7.90;;
18114;SDS011;9184;54.390;18.620;2023-05-07T01:09:23;13.03;;;7.37;;
18114;SDS011;9184;54.390;18.620;2023-05-07T01:09:55;16.93;;;8.00;;
18114;SDS011;9184;54.390;18.620;2023-05-07T01:10:25;20.80;;;8.03;;
18114;SDS011;9184;54.390;18.620;2023-05-07T01:10:56;18.80;;;7.40;;
18114;SDS011;9184;54.390;18.620;2023-05-07T01:11:28;20.93;;;8.33;;
18114;SDS011;9184;54.390;18.620;2023-05-07T01:11:58;24.57;;;7.73;;
18114;SDS011;9184;54.390;18.620;2023-05-07T01:12:29;12.77;;;7.80;;
18114;SDS011;9184;54.390;18.620;2023-05-07T01:13:01;17.17;;;8.10;;
18114;SDS011;9184;54.390;18.620;2023-05-07T01:13:33;15.93;;;8.50;;
18114;SDS011;9184;54.390;18.620;2023-05-07T01:14:03;16.40;;;7.97;;
18114;SDS011;9184;54.390;18.620;2023-05-07T01:14:36;18.83;;;8.20;;
18114;SDS011;9184;54.390;18.620;2023-05-07T01:15:07;15.03;;;7.63;;
18114;SDS011;9184;54.390;18.620;2023-05-07T01:15:39;14.50;;;7.37;;
18114;SDS011;9184;54.390;18.620;2023-05-07T01:16:11;14.67;;;7.30;;
18114;SDS011;9184;54.390;18.620;2023-05-07T01:16:41;13.77;;;7.60;;
18114;SDS011;9184;54.390;18.620;2023-05-07T01:17:13;14.10;;;7.83;;
18114;SDS011;9184;54.390;18.620;2023-05-07T01:17:43;14.97;;;7.83;;
18114;SDS011;9184;54.390;18.620;2023-05-07T01:18:14;17.57;;;7.07;;
18114;SDS011;9184;54.390;18.620;2023-05-07T01:18:45;15.80;;;7.23;;
18114;SDS011;9184;54.390;18.620;2023-05-07T01:19:18;15.87;;;7.87;;
18114;SDS011;9184;54.390;18.620;2023-05-07T01:19:49;14.10;;;7.23;;
18114;SDS011;9184;54.390;18.620;2023-05-07T01:20:21;13.07;;;6.97;;
18114;SDS011;9184;54.390;18.620;2023-05-07T01:20:52;18.40;;;7.57;;
18114;SDS011;9184;54.390;18.620;2023-05-07T01:21:24;15.63;;;8.20;;
18114;SDS011;9184;54.390;18.620;2023-05-07T01:21:59;20.47;;;7.67;;
18114;SDS011;9184;54.390;18.620;2023-05-07T01:22:32;12.07;;;6.97;;
18114;SDS011;9184;54.390;18.620;2023-05-07T01:23:03;14.07;;;7.70;;
18114;SDS011;9184;54.390;18.620;2023-05-07T01:23:36;12.00;;;7.67;;
18114;SDS011;9184;54.390;18.620;2023-05-07T01:24:07;16.40;;;7.80;;
18114;SDS011;9184;54.390;18.620;2023-05-07T01:24:37;11.40;;;7.23;;
18114;SDS011;9184;54.390;18.620;2023-05-07T01:25:08;11.17;;;7.63;;
18114;SDS011;9184;54.390;18.620;2023-05-07T01:25:40;16.07;;;8.07;;
18114;SDS011;9184;54.390;18.620;2023-05-07T01:26:10;16.77;;;7.53;;
18114;SDS011;9184;54.390;18.620;2023-05-07T01:26:41;13.13;;;7.97;;
18114;SDS011;9184;54.390;18.620;2023-05-07T01:27:12;19.30;;;8.30;;
18114;SDS011;9184;54.390;18.620;2023-05-07T01:27:43;17.33;;;8.00;;
18114;SDS011;9184;54.390;18.620;2023-05-07T01:28:14;11.33;;;7.23;;
18114;SDS011;9184;54.390;18.620;2023-05-07T01:28:45;12.70;;;7.90;;
18114;SDS011;9184;54.390;18.620;2023-05-07T01:29:16;17.63;;;8.03;;
18114;SDS011;9184;54.390;18.620;2023-05-07T01:29:47;16.00;;;8.27;;
18114;SDS011;9184;54.390;18.620;2023-05-07T01:30:17;15.63;;;7.87;;
18114;SDS011;9184;54.390;18.620;2023-05-07T01:30:51;13.27;;;7.90;;
18114;SDS011;9184;54.390;18.620;2023-05-07T01:31:22;15.90;;;8.13;;
18114;SDS011;9184;54.390;18.620;2023-05-07T01:31:53;13.50;;;7.17;;
18114;SDS011;9184;54.390;18.620;2023-05-07T01:32:27;12.03;;;7.23;;
18114;SDS011;9184;54.390;18.620;2023-05-07T01:33:00;11.90;;;7.03;;
18114;SDS011;9184;54.390;18.620;2023-05-07T01:33:33;14.43;;;7.70;;
18114;SDS011;9184;54.390;18.620;2023-05-07T01:34:06;13.93;;;8.33;;
18114;SDS011;9184;54.390;18.620;2023-05-07T01:34:37;10.47;;;7.10;;
18114;SDS011;9184;54.390;18.620;2023-05-07T01:35:09;10.53;;;7.47;;
18114;SDS011;9184;54.390;18.620;2023-05-07T01:35:41;13.90;;;8.47;;
18114;SDS011;9184;54.390;18.620;2023-05-07T01:36:31;13.53;;;8.10;;
18114;SDS011;9184;54.390;18.620;2023-05-07T01:37:03;14.10;;;8.13;;
18114;SDS011;9184;54.390;18.620;2023-05-07T01:37:34;17.47;;;8.57;;
18114;SDS011;9184;54.390;18.620;2023-05-07T01:38:04;14.60;;;7.50;;
18114;SDS011;9184;54.390;18.620;2023-05-07T01:38:36;14.87;;;8.17;;
18114;SDS011;9184;54.390;18.620;2023-05-07T01:39:07;15.87;;;8.50;;
18114;SDS011;9184;54.390;18.620;2023-05-07T01:39:38;16.20;;;8.07;;
18114;SDS011;9184;54.390;18.620;2023-05-07T01:40:11;13.03;;;8.53;;
18114;SDS011;9184;54.390;18.620;2023-05-07T01:40:41;15.27;;;8.73;;
18114;SDS011;9184;54.390;18.620;2023-05-07T01:41:12;14.77;;;9.00;;
18114;SDS011;9184;54.390;18.620;2023-05-07T01:41:43;17.77;;;8.67;;
18114;SDS011;9184;54.390;18.620;2023-05-07T01:42:14;17.23;;;9.10;;
18114;SDS011;9184;54.390;18.620;2023-05-07T01:42:45;14.83;;;9.03;;
18114;SDS011;9184;54.390;18.620;2023-05-07T01:43:18;20.13;;;9.37;;
18114;SDS011;9184;54.390;18.620;2023-05-07T01:43:49;14.20;;;9.13;;
18114;SDS011;9184;54.390;18.620;2023-05-07T01:44:20;16.43;;;9.27;;
18114;SDS011;9184;54.390;18.620;2023-05-07T01:44:51;15.20;;;8.40;;
18114;SDS011;9184;54.390;18.620;2023-05-07T01:45:22;17.03;;;9.00;;
18114;SDS011;9184;54.390;18.620;2023-05-07T01:45:53;13.33;;;9.07;;
18114;SDS011;9184;54.390;18.620;2023-05-07T01:46:24;19.93;;;10.23;;
18114;SDS011;9184;54.390;18.620;2023-05-07T01:46:56;13.47;;;8.23;;
18114;SDS011;9184;54.390;18.620;2023-05-07T01:47:27;20.43;;;10.80;;
18114;SDS011;9184;54.390;18.620;2023-05-07T01:47:59;19.07;;;9.93;;
18114;SDS011;9184;54.390;18.620;2023-05-07T01:48:30;16.70;;;9.87;;
18114;SDS011;9184;54.390;18.620;2023-05-07T01:49:01;14.57;;;9.63;;
18114;SDS011;9184;54.390;18.620;2023-05-07T01:49:31;16.63;;;10.33;;
18114;SDS011;9184;54.390;18.620;2023-05-07T01:50:03;15.50;;;9.97;;
18114;SDS011;9184;54.390;18.620;2023-05-07T01:50:34;20.20;;;9.90;;
18114;SDS011;9184;54.390;18.620;2023-05-07T01:51:05;19.47;;;10.40;;
18114;SDS011;9184;54.390;18.620;2023-05-07T01:51:38;18.47;;;9.93;;
18114;SDS011;9184;54.390;18.620;2023-05-07T01:52:10;16.43;;;9.60;;
18114;SDS011;9184;54.390;18.620;2023-05-07T01:52:40;15.93;;;9.87;;
18114;SDS011;9184;54.390;18.620;2023-05-07T01:53:11;16.80;;;9.60;;
18114;SDS011;9184;54.390;18.620;2023-05-07T01:53:42;17.83;;;10.27;;
18114;SDS011;9184;54.390;18.620;2023-05-07T01:54:14;17.17;;;10.37;;
18114;SDS011;9184;54.390;18.620;2023-05-07T01:54:44;17.20;;;10.57;;
18114;SDS011;9184;54.390;18.620;2023-05-07T01:55:16;17.07;;;10.63;;
18114;SDS011;9184;54.390;18.620;2023-05-07T01:55:46;20.37;;;10.40;;
18114;SDS011;9184;54.390;18.620;2023-05-07T01:56:17;19.40;;;10.73;;
18114;SDS011;9184;54.390;18.620;2023-05-07T01:56:47;14.77;;;10.07;;
18114;SDS011;9184;54.390;18.620;2023-05-07T01:57:19;17.50;;;10.73;;
18114;SDS011;9184;54.390;18.620;2023-05-07T01:57:50;19.97;;;10.53;;
18114;SDS011;9184;54.390;18.620;2023-05-07T01:58:20;17.07;;;10.50;;
18114;SDS011;9184;54.390;18.620;2023-05-07T01:58:52;20.90;;;10.80;;
18114;SDS011;9184;54.390;18.620;2023-05-07T01:59:22;20.77;;;11.47;;
18114;SDS011;9184;54.390;18.620;2023-05-07T01:59:52;18.83;;;10.70;;
18114;SDS011;9184;54.390;18.620;2023-05-07T02:00:23;17.23;;;10.27;;
18114;SDS011;9184;54.390;18.620;2023-05-07T02:00:55;18.73;;;11.27;;
18114;SDS011;9184;54.390;18.620;2023-05-07T02:01:25;20.73;;;10.83;;
18114;SDS011;9184;54.390;18.620;2023-05-07T02:01:56;17.93;;;9.63;;
18114;SDS011;9184;54.390;18.620;2023-05-07T02:02:27;16.73;;;10.47;;
18114;SDS011;9184;54.390;18.620;2023-05-07T02:02:57;15.73;;;10.40;;
18114;SDS011;9184;54.390;18.620;2023-05-07T02:03:28;16.73;;;10.90;;
18114;SDS011;9184;54.390;18.620;2023-05-07T02:03:58;19.67;;;10.40;;
18114;SDS011;9184;54.390;18.620;2023-05-07T02:04:30;21.30;;;11.37;;
18114;SDS011;9184;54.390;18.620;2023-05-07T02:05:00;18.83;;;11.27;;
18114;SDS011;9184;54.390;18.620;2023-05-07T02:05:31;25.13;;;12.10;;
18114;SDS011;9184;54.390;18.620;2023-05-07T02:06:01;17.77;;;11.23;;
18114;SDS011;9184;54.390;18.620;2023-05-07T02:06:33;21.77;;;11.43;;
18114;SDS011;9184;54.390;18.620;2023-05-07T02:07:05;18.07;;;11.47;;
18114;SDS011;9184;54.390;18.620;2023-05-07T02:07:35;16.17;;;11.07;;
18114;SDS011;9184;54.390;18.620;2023-05-07T02:08:07;19.67;;;12.10;;
18114;SDS011;9184;54.390;18.620;2023-05-07T02:08:37;22.03;;;10.97;;
18114;SDS011;9184;54.390;18.620;2023-05-07T02:09:07;18.13;;;11.30;;
18114;SDS011;9184;54.390;18.620;2023-05-07T02:09:39;19.00;;;11.30;;
18114;SDS011;9184;54.390;18.620;2023-05-07T02:10:10;19.47;;;12.20;;
18114;SDS011;9184;54.390;18.620;2023-05-07T02:10:40;17.60;;;11.27;;
18114;SDS011;9184;54.390;18.620;2023-05-07T02:11:11;24.13;;;12.23;;
18114;SDS011;9184;54.390;18.620;2023-05-07T02:11:42;19.97;;;11.50;;
18114;SDS011;9184;54.390;18.620;2023-05-07T02:12:13;21.10;;;11.47;;
18114;SDS011;9184;54.390;18.620;2023-05-07T02:12:43;22.90;;;11.37;;
18114;SDS011;9184;54.390;18.620;2023-05-07T02:13:14;21.37;;;12.10;;
18114;SDS011;9184;54.390;18.620;2023-05-07T02:13:46;19.43;;;11.93;;
18114;SDS011;9184;54.390;18.620;2023-05-07T02:14:16;20.93;;;11.90;;
18114;SDS011;9184;54.390;18.620;2023-05-07T02:14:46;16.23;;;11.50;;
18114;SDS011;9184;54.390;18.620;2023-05-07T02:15:18;16.60;;;11.03;;
18114;SDS011;9184;54.390;18.620;2023-05-07T02:15:48;14.53;;;10.23;;
18114;SDS011;9184;54.390;18.620;2023-05-07T02:16:20;18.00;;;11.17;;
18114;SDS011;9184;54.390;18.620;2023-05-07T02:16:53;25.87;;;12.40;;
18114;SDS011;9184;54.390;18.620;2023-05-07T02:17:23;21.30;;;11.37;;
18114;SDS011;9184;54.390;18.620;2023-05-07T02:18:00;17.57;;;11.40;;
18114;SDS011;9184;54.390;18.620;2023-05-07T02:18:32;18.00;;;11.17;;
18114;SDS011;9184;54.390;18.620;2023-05-07T02:19:02;20.57;;;11.27;;
18114;SDS011;9184;54.390;18.620;2023-05-07T02:19:33;20.17;;;11.27;;
18114;SDS011;9184;54.390;18.620;2023-05-07T02:20:04;18.87;;;10.93;;
18114;SDS011;9184;54.390;18.620;2023-05-07T02:20:37;21.17;;;12.30;;
18114;SDS011;9184;54.390;18.620;2023-05-07T02:21:07;22.13;;;11.40;;
18114;SDS011;9184;54.390;18.620;2023-05-07T02:21:38;17.67;;;11.53;;
18114;SDS011;9184;54.390;18.620;2023-05-07T02:22:10;20.47;;;11.77;;
18114;SDS011;9184;54.390;18.620;2023-05-07T02:22:41;18.97;;;12.03;;
18114;SDS011;9184;54.390;18.620;2023-05-07T02:23:12;15.63;;;10.90;;
18114;SDS011;9184;54.390;18.620;2023-05-07T02:23:42;18.37;;;10.97;;
18114;SDS011;9184;54.390;18.620;2023-05-07T02:24:13;20.17;;;11.97;;
18114;SDS011;9184;54.390;18.620;2023-05-07T02:24:44;18.70;;;11.93;;
18114;SDS011;9184;54.390;18.620;2023-05-07T02:25:14;24.80;;;12.03;;
18114;SDS011;9184;54.390;18.620;2023-05-07T02:25:46;16.10;;;10.90;;
18114;SDS011;9184;54.390;18.620;2023-05-07T02:26:16;20.83;;;11.87;;
18114;SDS011;9184;54.390;18.620;2023-05-07T02:26:47;21.03;;;11.67;;
18114;SDS011;9184;54.390;18.620;2023-05-07T02:27:18;19.47;;;11.83;;
18114;SDS011;9184;54.390;18.620;2023-05-07T02:27:49;19.47;;;11.03;;
18114;SDS011;9184;54.390;18.620;2023-05-07T02:28:19;29.10;;;13.00;;
18114;SDS011;9184;54.390;18.620;2023-05-07T02:28:51;21.90;;;11.40;;
18114;SDS011;9184;54.390;18.620;2023-05-07T02:29:22;18.33;;;11.27;;
18114;SDS011;9184;54.390;18.620;2023-05-07T02:29:52;21.13;;;11.90;;
18114;SDS011;9184;54.390;18.620;2023-05-07T02:30:23;19.70;;;11.67;;
18114;SDS011;9184;54.390;18.620;2023-05-07T02:30:55;22.33;;;11.83;;
18114;SDS011;9184;54.390;18.620;2023-05-07T02:31:25;23.10;;;12.20;;
18114;SDS011;9184;54.390;18.620;2023-05-07T02:31:56;18.83;;;11.77;;
18114;SDS011;9184;54.390;18.620;2023-05-07T02:32:26;16.13;;;11.17;;
18114;SDS011;9184;54.390;18.620;2023-05-07T02:32:58;19.23;;;11.20;;
18114;SDS011;9184;54.390;18.620;2023-05-07T02:33:28;20.23;;;12.23;;
18114;SDS011;9184;54.390;18.620;2023-05-07T02:33:59;21.10;;;11.73;;
18114;SDS011;9184;54.390;18.620;2023-05-07T02:34:30;22.77;;;12.53;;
18114;SDS011;9184;54.390;18.620;2023-05-07T02:35:00;20.43;;;12.73;;
18114;SDS011;9184;54.390;18.620;2023-05-07T02:35:31;23.40;;;11.70;;
18114;SDS011;9184;54.390;18.620;2023-05-07T02:36:05;24.37;;;13.47;;
18114;SDS011;9184;54.390;18.620;2023-05-07T02:36:37;21.67;;;12.37;;
18114;SDS011;9184;54.390;18.620;2023-05-07T02:37:07;26.63;;;12.80;;
18114;SDS011;9184;54.390;18.620;2023-05-07T02:37:39;21.30;;;11.83;;
18114;SDS011;9184;54.390;18.620;2023-05-07T02:38:09;18.23;;;11.30;;
18114;SDS011;9184;54.390;18.620;2023-05-07T02:38:41;24.00;;;12.27;;
18114;SDS011;9184;54.390;18.620;2023-05-07T02:39:11;19.30;;;12.03;;
18114;SDS011;9184;54.390;18.620;2023-05-07T02:39:42;23.03;;;13.43;;
18114;SDS011;9184;54.390;18.620;2023-05-07T02:40:13;22.07;;;12.70;;
18114;SDS011;9184;54.390;18.620;2023-05-07T02:40:44;20.93;;;13.07;;
18114;SDS011;9184;54.390;18.620;2023-05-07T02:41:14;28.07;;;12.93;;
18114;SDS011;9184;54.390;18.620;2023-05-07T02:41:46;23.40;;;13.03;;
18114;SDS011;9184;54.390;18.620;2023-05-07T02:42:16;23.87;;;12.97;;
18114;SDS011;9184;54.390;18.620;2023-05-07T02:42:47;26.17;;;14.03;;
18114;SDS011;9184;54.390;18.620;2023-05-07T02:43:17;21.90;;;12.80;;
18114;SDS011;9184;54.390;18.620;2023-05-07T02:43:49;23.30;;;12.67;;
18114;SDS011;9184;54.390;18.620;2023-05-07T02:44:19;22.63;;;13.00;;
18114;SDS011;9184;54.390;18.620;2023-05-07T02:44:50;20.70;;;13.33;;
18114;SDS011;9184;54.390;18.620;2023-05-07T02:45:21;24.97;;;13.27;;
18114;SDS011;9184;54.390;18.620;2023-05-07T02:45:59;22.03;;;13.30;;
18114;SDS011;9184;54.390;18.620;2023-05-07T02:46:30;23.37;;;14.03;;
18114;SDS011;9184;54.390;18.620;2023-05-07T02:47:00;21.67;;;12.80;;
18114;SDS011;9184;54.390;18.620;2023-05-07T02:47:32;18.80;;;12.20;;
18114;SDS011;9184;54.390;18.620;2023-05-07T02:48:03;21.17;;;12.13;;
18114;SDS011;9184;54.390;18.620;2023-05-07T02:48:33;22.50;;;12.30;;
18114;SDS011;9184;54.390;18.620;2023-05-07T02:49:05;24.60;;;13.17;;
18114;SDS011;9184;54.390;18.620;2023-05-07T02:49:36;24.10;;;12.67;;
18114;SDS011;9184;54.390;18.620;2023-05-07T02:50:07;26.50;;;13.27;;
18114;SDS011;9184;54.390;18.620;2023-05-07T02:50:37;23.00;;;12.73;;
18114;SDS011;9184;54.390;18.620;2023-05-07T02:51:09;23.33;;;13.23;;
18114;SDS011;9184;54.390;18.620;2023-05-07T02:51:39;19.00;;;11.90;;
18114;SDS011;9184;54.390;18.620;2023-05-07T02:52:10;21.83;;;13.27;;
18114;SDS011;9184;54.390;18.620;2023-05-07T02:52:41;25.67;;;13.67;;
18114;SDS011;9184;54.390;18.620;2023-05-07T02:53:13;28.63;;;14.20;;
18114;SDS011;9184;54.390;18.620;2023-05-07T02:53:43;24.80;;;12.80;;
18114;SDS011;9184;54.390;18.620;2023-05-07T02:54:14;27.20;;;14.00;;
18114;SDS011;9184;54.390;18.620;2023-05-07T02:54:45;23.00;;;13.20;;
18114;SDS011;9184;54.390;18.620;2023-05-07T02:55:16;22.17;;;12.43;;
18114;SDS011;9184;54.390;18.620;2023-05-07T02:55:46;22.73;;;12.97;;
18114;SDS011;9184;54.390;18.620;2023-05-07T02:56:17;26.40;;;14.03;;
18114;SDS011;9184;54.390;18.620;2023-05-07T02:56:48;31.03;;;13.87;;
18114;SDS011;9184;54.390;18.620;2023-05-07T02:57:19;29.33;;;12.43;;
18114;SDS011;9184;54.390;18.620;2023-05-07T02:57:49;21.50;;;13.87;;
18114;SDS011;9184;54.390;18.620;2023-05-07T02:58:21;25.47;;;13.80;;
18114;SDS011;9184;54.390;18.620;2023-05-07T02:58:51;22.77;;;14.13;;
18114;SDS011;9184;54.390;18.620;2023-05-07T02:59:21;28.17;;;14.87;;
18114;SDS011;9184;54.390;18.620;2023-05-07T02:59:52;21.87;;;13.63;;
18114;SDS011;9184;54.390;18.620;2023-05-07T03:00:24;25.53;;;13.93;;
18114;SDS011;9184;54.390;18.620;2023-05-07T03:00:54;24.43;;;13.70;;
18114;SDS011;9184;54.390;18.620;2023-05-07T03:01:25;19.80;;;12.60;;
18114;SDS011;9184;54.390;18.620;2023-05-07T03:01:55;25.67;;;13.10;;
18114;SDS011;9184;54.390;18.620;2023-05-07T03:02:26;23.30;;;13.13;;
18114;SDS011;9184;54.390;18.620;2023-05-07T03:02:57;23.47;;;13.67;;
18114;SDS011;9184;54.390;18.620;2023-05-07T03:03:27;24.37;;;14.80;;
18114;SDS011;9184;54.390;18.620;2023-05-07T03:03:59;24.07;;;14.20;;